sensor_id;sensor_type;location;lat;lon;timestamp;P1;durP1;ratioP1;P2;durP2;ratioP2
4078;SDS011;2054;47.858;11.156;2023-05-10T02:47:33;1.00;;;0.50;;
4078;SDS011;2054;47.858;11.156;2023-05-10T02:50:00;0.52;;;0.52;;
4078;SDS011;2054;47.858;11.156;2023-05-10T02:52:29;0.60;;;0.50;;
4078;SDS011;2054;47.858;11.156;2023-05-10T02:54:58;2.15;;;1.40;;
4078;SDS011;2054;47.858;11.156;2023-05-10T02:57:28;0.50;;;0.50;;
4078;SDS011;2054;47.858;11.156;2023-05-10T02:59:57;0.50;;;0.50;;
4078;SDS011;2054;47.858;11.156;2023-05-10T03:02:25;1.02;;;0.70;;
4078;SDS011;2054;47.858;11.156;2023-05-10T03:04:54;0.40;;;0.40;;
4078;SDS011;2054;47.858;11.156;2023-05-10T03:07:21;1.50;;;0.57;;
4078;SDS011;2054;47.858;11.156;2023-05-10T03:09:49;0.50;;;0.50;;
4078;SDS011;2054;47.858;11.156;2023-05-10T03:12:19;0.50;;;0.50;;
4078;SDS011;2054;47.858;11.156;2023-05-10T03:14:53;0.60;;;0.60;;
4078;SDS011;2054;47.858;11.156;2023-05-10T03:17:22;0.50;;;0.50;;
4078;SDS011;2054;47.858;11.156;2023-05-10T03:19:52;0.40;;;0.40;;
4078;SDS011;2054;47.858;11.156;2023-05-10T03:22:23;0.50;;;0.50;;
4078;SDS011;2054;47.858;11.156;2023-05-10T03:24:52;0.50;;;0.50;;
4078;SDS011;2054;47.858;11.156;2023-05-10T03:27:20;0.50;;;0.50;;
4078;SDS011;2054;47.858;11.156;2023-05-10T03:29:49;1.35;;;0.47;;
4078;SDS011;2054;47.858;11.156;2023-05-10T03:32:17;0.40;;;0.40;;
4078;SDS011;2054;47.858;11.156;2023-05-10T03:34:44;0.63;;;0.60;;
4078;SDS011;2054;47.858;11.156;2023-05-10T03:37:12;0.40;;;0.40;;
4078;SDS011;2054;47.858;11.156;2023-05-10T03:39:40;0.85;;;0.60;;
4078;SDS011;2054;47.858;11.156;2023-05-10T03:42:07;1.42;;;0.50;;
4078;SDS011;2054;47.858;11.156;2023-05-10T03:44:36;1.58;;;0.50;;
4078;SDS011;2054;47.858;11.156;2023-05-10T03:47:04;0.88;;;0.52;;
4078;SDS011;2054;47.858;11.156;2023-05-10T03:49:31;1.50;;;0.45;;
4078;SDS011;2054;47.858;11.156;2023-05-10T03:51:58;0.50;;;0.50;;
4078;SDS011;2054;47.858;11.156;2023-05-10T03:54:26;0.50;;;0.50;;
4078;SDS011;2054;47.858;11.156;2023-05-10T03:56:54;1.35;;;0.50;;
4078;SDS011;2054;47.858;11.156;2023-05-10T03:59:22;0.60;;;0.60;;
4078;SDS011;2054;47.858;11.156;2023-05-10T04:01:49;0.60;;;0.50;;
4078;SDS011;2054;47.858;11.156;2023-05-10T04:04:16;0.50;;;0.50;;
4078;SDS011;2054;47.858;11.156;2023-05-10T04:06:45;0.50;;;0.50;;
4078;SDS011;2054;47.858;11.156;2023-05-10T04:09:13;3.63;;;0.65;;
4078;SDS011;2054;47.858;11.156;2023-05-10T04:11:40;0.47;;;0.47;;
4078;SDS011;2054;47.858;11.156;2023-05-10T04:14:08;0.73;;;0.70;;
4078;SDS011;2054;47.858;11.156;2023-05-10T04:16:36;1.58;;;0.60;;
4078;SDS011;2054;47.858;11.156;2023-05-10T04:19:03;0.50;;;0.50;;
4078;SDS011;2054;47.858;11.156;2023-05-10T04:21:31;1.42;;;0.70;;
4078;SDS011;2054;47.858;11.156;2023-05-10T04:23:59;1.48;;;0.60;;
4078;SDS011;2054;47.858;11.156;2023-05-10T04:26:26;0.40;;;0.40;;
4078;SDS011;2054;47.858;11.156;2023-05-10T04:28:53;0.95;;;0.70;;
4078;SDS011;2054;47.858;11.156;2023-05-10T04:31:22;0.50;;;0.50;;
4078;SDS011;2054;47.858;11.156;2023-05-10T04:33:49;0.80;;;0.80;;
4078;SDS011;2054;47.858;11.156;2023-05-10T04:36:17;0.68;;;0.68;;
4078;SDS011;2054;47.858;11.156;2023-05-10T04:38:44;0.40;;;0.40;;
4078;SDS011;2054;47.858;11.156;2023-05-10T04:41:12;0.55;;;0.50;;
4078;SDS011;2054;47.858;11.156;2023-05-10T04:43:39;0.70;;;0.60;;
4078;SDS011;2054;47.858;11.156;2023-05-10T04:46:06;0.40;;;0.40;;
4078;SDS011;2054;47.858;11.156;2023-05-10T04:48:35;0.40;;;0.40;;
4078;SDS011;2054;47.858;11.156;2023-05-10T04:51:02;0.40;;;0.40;;
4078;SDS011;2054;47.858;11.156;2023-05-10T04:53:31;0.68;;;0.68;;
4078;SDS011;2054;47.858;11.156;2023-05-10T04:56:00;0.40;;;0.40;;
4078;SDS011;2054;47.858;11.156;2023-05-10T04:58:27;1.05;;;0.60;;
4078;SDS011;2054;47.858;11.156;2023-05-10T05:00:54;0.40;;;0.40;;
4078;SDS011;2054;47.858;11.156;2023-05-10T05:03:21;0.45;;;0.45;;
4078;SDS011;2054;47.858;11.156;2023-05-10T05:05:50;0.40;;;0.40;;
4078;SDS011;2054;47.858;11.156;2023-05-10T05:08:17;0.52;;;0.52;;
4078;SDS011;2054;47.858;11.156;2023-05-10T05:10:45;0.75;;;0.75;;
4078;SDS011;2054;47.858;11.156;2023-05-10T05:13:12;0.73;;;0.70;;
4078;SDS011;2054;47.858;11.156;2023-05-10T05:15:40;1.27;;;0.60;;
4078;SDS011;2054;47.858;11.156;2023-05-10T05:18:07;0.80;;;0.80;;
4078;SDS011;2054;47.858;11.156;2023-05-10T05:20:34;3.00;;;1.58;;
4078;SDS011;2054;47.858;11.156;2023-05-10T05:23:03;2.95;;;0.60;;
4078;SDS011;2054;47.858;11.156;2023-05-10T05:25:30;0.82;;;0.50;;
4078;SDS011;2054;47.858;11.156;2023-05-10T05:27:58;0.57;;;0.50;;
4078;SDS011;2054;47.858;11.156;2023-05-10T05:30:25;1.17;;;0.80;;
4078;SDS011;2054;47.858;11.156;2023-05-10T05:32:53;2.35;;;0.75;;
4078;SDS011;2054;47.858;11.156;2023-05-10T05:35:20;0.60;;;0.60;;
4078;SDS011;2054;47.858;11.156;2023-05-10T05:37:48;0.50;;;0.50;;
4078;SDS011;2054;47.858;11.156;2023-05-10T05:40:16;0.95;;;0.80;;
4078;SDS011;2054;47.858;11.156;2023-05-10T05:42:45;0.73;;;0.73;;
4078;SDS011;2054;47.858;11.156;2023-05-10T05:45:12;1.55;;;0.70;;
4078;SDS011;2054;47.858;11.156;2023-05-10T05:47:40;2.25;;;0.90;;
4078;SDS011;2054;47.858;11.156;2023-05-10T05:50:08;4.00;;;1.40;;
4078;SDS011;2054;47.858;11.156;2023-05-10T05:52:35;0.70;;;0.70;;
4078;SDS011;2054;47.858;11.156;2023-05-10T05:55:03;1.17;;;0.80;;
4078;SDS011;2054;47.858;11.156;2023-05-10T05:57:31;2.15;;;1.30;;
4078;SDS011;2054;47.858;11.156;2023-05-10T05:59:59;0.90;;;0.77;;
4078;SDS011;2054;47.858;11.156;2023-05-10T06:02:27;1.65;;;1.00;;
4078;SDS011;2054;47.858;11.156;2023-05-10T06:04:54;1.95;;;1.10;;
4078;SDS011;2054;47.858;11.156;2023-05-10T06:07:22;2.60;;;1.60;;
4078;SDS011;2054;47.858;11.156;2023-05-10T06:09:50;2.33;;;0.90;;
4078;SDS011;2054;47.858;11.156;2023-05-10T06:12:17;2.78;;;1.30;;
4078;SDS011;2054;47.858;11.156;2023-05-10T06:14:46;2.97;;;1.73;;
4078;SDS011;2054;47.858;11.156;2023-05-10T06:17:13;1.38;;;1.10;;
4078;SDS011;2054;47.858;11.156;2023-05-10T06:19:41;1.17;;;1.08;;
4078;SDS011;2054;47.858;11.156;2023-05-10T06:22:08;0.90;;;0.80;;
4078;SDS011;2054;47.858;11.156;2023-05-10T06:24:35;0.80;;;0.77;;
4078;SDS011;2054;47.858;11.156;2023-05-10T06:27:03;1.40;;;1.17;;
4078;SDS011;2054;47.858;11.156;2023-05-10T06:29:30;0.80;;;0.80;;
4078;SDS011;2054;47.858;11.156;2023-05-10T06:31:58;0.80;;;0.80;;
4078;SDS011;2054;47.858;11.156;2023-05-10T06:34:26;0.70;;;0.70;;
4078;SDS011;2054;47.858;11.156;2023-05-10T06:36:53;0.70;;;0.70;;
4078;SDS011;2054;47.858;11.156;2023-05-10T06:39:20;1.02;;;0.70;;
4078;SDS011;2054;47.858;11.156;2023-05-10T06:41:48;1.30;;;0.68;;
4078;SDS011;2054;47.858;11.156;2023-05-10T06:44:15;0.70;;;0.70;;
4078;SDS011;2054;47.858;11.156;2023-05-10T06:46:42;0.82;;;0.68;;
4078;SDS011;2054;47.858;11.156;2023-05-10T06:49:11;0.80;;;0.80;;
4078;SDS011;2054;47.858;11.156;2023-05-10T06:51:38;0.90;;;0.70;;
4078;SDS011;2054;47.858;11.156;2023-05-10T06:54:06;0.80;;;0.80;;
4078;SDS011;2054;47.858;11.156;2023-05-10T06:56:33;0.93;;;0.90;;
4078;SDS011;2054;47.858;11.156;2023-05-10T06:59:00;1.75;;;0.70;;
4078;SDS011;2054;47.858;11.156;2023-05-10T07:01:28;0.70;;;0.70;;
4078;SDS011;2054;47.858;11.156;2023-05-10T07:03:55;0.80;;;0.80;;
4078;SDS011;2054;47.858;11.156;2023-05-10T07:06:24;1.42;;;1.13;;
4078;SDS011;2054;47.858;11.156;2023-05-10T07:08:52;1.63;;;0.80;;
4078;SDS011;2054;47.858;11.156;2023-05-10T07:11:19;1.67;;;0.65;;
4078;SDS011;2054;47.858;11.156;2023-05-10T07:13:46;0.60;;;0.60;;
4078;SDS011;2054;47.858;11.156;2023-05-10T07:16:14;0.70;;;0.70;;
4078;SDS011;2054;47.858;11.156;2023-05-10T07:18:41;3.05;;;0.90;;
4078;SDS011;2054;47.858;11.156;2023-05-10T07:21:08;3.45;;;0.80;;
4078;SDS011;2054;47.858;11.156;2023-05-10T07:23:37;1.77;;;0.80;;
4078;SDS011;2054;47.858;11.156;2023-05-10T07:26:04;1.30;;;0.60;;
4078;SDS011;2054;47.858;11.156;2023-05-10T07:28:32;0.90;;;0.90;;
4078;SDS011;2054;47.858;11.156;2023-05-10T07:31:01;0.70;;;0.70;;
4078;SDS011;2054;47.858;11.156;2023-05-10T07:33:29;2.05;;;0.93;;
4078;SDS011;2054;47.858;11.156;2023-05-10T07:35:57;0.70;;;0.70;;
4078;SDS011;2054;47.858;11.156;2023-05-10T07:38:24;0.70;;;0.60;;
4078;SDS011;2054;47.858;11.156;2023-05-10T07:40:53;1.25;;;0.80;;
4078;SDS011;2054;47.858;11.156;2023-05-10T07:43:20;1.17;;;0.75;;
4078;SDS011;2054;47.858;11.156;2023-05-10T07:45:47;1.40;;;0.88;;
4078;SDS011;2054;47.858;11.156;2023-05-10T07:48:15;1.20;;;0.80;;
4078;SDS011;2054;47.858;11.156;2023-05-10T07:50:42;0.70;;;0.70;;
4078;SDS011;2054;47.858;11.156;2023-05-10T07:53:09;1.45;;;0.90;;
4078;SDS011;2054;47.858;11.156;2023-05-10T07:55:37;1.48;;;0.88;;
4078;SDS011;2054;47.858;11.156;2023-05-10T07:58:05;0.80;;;0.80;;
4078;SDS011;2054;47.858;11.156;2023-05-10T08:00:33;0.57;;;0.57;;
4078;SDS011;2054;47.858;11.156;2023-05-10T08:03:00;1.67;;;0.80;;
4078;SDS011;2054;47.858;11.156;2023-05-10T08:05:28;1.60;;;0.75;;
4078;SDS011;2054;47.858;11.156;2023-05-10T08:07:55;0.90;;;0.60;;
4078;SDS011;2054;47.858;11.156;2023-05-10T08:10:23;0.70;;;0.70;;
4078;SDS011;2054;47.858;11.156;2023-05-10T08:12:51;0.75;;;0.60;;
4078;SDS011;2054;47.858;11.156;2023-05-10T08:15:19;1.70;;;0.90;;
4078;SDS011;2054;47.858;11.156;2023-05-10T08:17:47;2.00;;;0.73;;
4078;SDS011;2054;47.858;11.156;2023-05-10T08:20:14;0.60;;;0.60;;
4078;SDS011;2054;47.858;11.156;2023-05-10T08:22:44;1.52;;;0.70;;
4078;SDS011;2054;47.858;11.156;2023-05-10T08:25:11;1.38;;;0.50;;
4078;SDS011;2054;47.858;11.156;2023-05-10T08:27:38;1.10;;;0.55;;
4078;SDS011;2054;47.858;11.156;2023-05-10T08:30:06;4.63;;;0.80;;
4078;SDS011;2054;47.858;11.156;2023-05-10T08:32:35;1.17;;;0.70;;
4078;SDS011;2054;47.858;11.156;2023-05-10T08:35:03;0.60;;;0.60;;
4078;SDS011;2054;47.858;11.156;2023-05-10T08:37:30;0.63;;;0.63;;
4078;SDS011;2054;47.858;11.156;2023-05-10T08:39:58;0.70;;;0.70;;
4078;SDS011;2054;47.858;11.156;2023-05-10T08:42:25;0.77;;;0.70;;
4078;SDS011;2054;47.858;11.156;2023-05-10T08:44:55;0.70;;;0.70;;
4078;SDS011;2054;47.858;11.156;2023-05-10T08:47:23;2.75;;;0.80;;
4078;SDS011;2054;47.858;11.156;2023-05-10T08:49:52;1.35;;;0.90;;
4078;SDS011;2054;47.858;11.156;2023-05-10T08:52:19;1.70;;;0.70;;
4078;SDS011;2054;47.858;11.156;2023-05-10T08:54:47;0.70;;;0.70;;
4078;SDS011;2054;47.858;11.156;2023-05-10T08:57:14;0.95;;;0.75;;
4078;SDS011;2054;47.858;11.156;2023-05-10T08:59:42;1.65;;;0.80;;
4078;SDS011;2054;47.858;11.156;2023-05-10T09:02:09;0.80;;;0.77;;
4078;SDS011;2054;47.858;11.156;2023-05-10T09:04:37;0.82;;;0.82;;
4078;SDS011;2054;47.858;11.156;2023-05-10T09:07:05;1.60;;;0.80;;
4078;SDS011;2054;47.858;11.156;2023-05-10T09:09:33;2.38;;;0.68;;
4078;SDS011;2054;47.858;11.156;2023-05-10T09:12:00;0.85;;;0.85;;
4078;SDS011;2054;47.858;11.156;2023-05-10T09:14:28;0.80;;;0.77;;
4078;SDS011;2054;47.858;11.156;2023-05-10T09:16:55;1.25;;;1.15;;
4078;SDS011;2054;47.858;11.156;2023-05-10T09:19:23;2.78;;;0.82;;
4078;SDS011;2054;47.858;11.156;2023-05-10T09:21:50;2.45;;;0.93;;
4078;SDS011;2054;47.858;11.156;2023-05-10T09:24:19;0.70;;;0.70;;
4078;SDS011;2054;47.858;11.156;2023-05-10T09:26:46;1.10;;;1.10;;
4078;SDS011;2054;47.858;11.156;2023-05-10T09:29:14;1.17;;;1.08;;
4078;SDS011;2054;47.858;11.156;2023-05-10T09:31:45;0.80;;;0.80;;
4078;SDS011;2054;47.858;11.156;2023-05-10T09:34:15;0.85;;;0.85;;
4078;SDS011;2054;47.858;11.156;2023-05-10T09:36:50;1.55;;;0.73;;
4078;SDS011;2054;47.858;11.156;2023-05-10T09:39:20;1.05;;;0.80;;
4078;SDS011;2054;47.858;11.156;2023-05-10T09:41:47;0.98;;;0.77;;
4078;SDS011;2054;47.858;11.156;2023-05-10T09:44:16;1.73;;;0.90;;
4078;SDS011;2054;47.858;11.156;2023-05-10T09:46:48;2.40;;;0.77;;
4078;SDS011;2054;47.858;11.156;2023-05-10T09:49:16;0.80;;;0.80;;
4078;SDS011;2054;47.858;11.156;2023-05-10T09:51:43;0.98;;;0.80;;
4078;SDS011;2054;47.858;11.156;2023-05-10T09:54:11;2.13;;;0.90;;
4078;SDS011;2054;47.858;11.156;2023-05-10T09:56:40;0.80;;;0.80;;
4078;SDS011;2054;47.858;11.156;2023-05-10T09:59:07;0.93;;;0.93;;
4078;SDS011;2054;47.858;11.156;2023-05-10T10:01:35;1.50;;;1.00;;
4078;SDS011;2054;47.858;11.156;2023-05-10T10:04:02;3.00;;;0.80;;
4078;SDS011;2054;47.858;11.156;2023-05-10T10:06:34;0.70;;;0.70;;
4078;SDS011;2054;47.858;11.156;2023-05-10T10:09:01;1.48;;;1.02;;
4078;SDS011;2054;47.858;11.156;2023-05-10T10:11:29;1.00;;;1.00;;
4078;SDS011;2054;47.858;11.156;2023-05-10T10:13:58;0.70;;;0.70;;
4078;SDS011;2054;47.858;11.156;2023-05-10T10:16:25;1.30;;;0.80;;
4078;SDS011;2054;47.858;11.156;2023-05-10T10:18:53;1.00;;;0.90;;
4078;SDS011;2054;47.858;11.156;2023-05-10T10:21:21;1.05;;;0.90;;
4078;SDS011;2054;47.858;11.156;2023-05-10T10:23:48;1.10;;;1.00;;
4078;SDS011;2054;47.858;11.156;2023-05-10T10:26:17;0.82;;;0.82;;
4078;SDS011;2054;47.858;11.156;2023-05-10T10:28:47;1.67;;;1.23;;
4078;SDS011;2054;47.858;11.156;2023-05-10T10:31:20;1.55;;;1.05;;
4078;SDS011;2054;47.858;11.156;2023-05-10T10:33:51;1.70;;;1.30;;
4078;SDS011;2054;47.858;11.156;2023-05-10T10:36:22;1.60;;;1.50;;
4078;SDS011;2054;47.858;11.156;2023-05-10T10:38:55;1.92;;;0.70;;
4078;SDS011;2054;47.858;11.156;2023-05-10T10:41:28;0.82;;;0.80;;
4078;SDS011;2054;47.858;11.156;2023-05-10T10:49:25;0.90;;;0.90;;
4078;SDS011;2054;47.858;11.156;2023-05-10T10:54:35;1.42;;;1.10;;
4078;SDS011;2054;47.858;11.156;2023-05-10T10:57:12;2.97;;;1.50;;
4078;SDS011;2054;47.858;11.156;2023-05-10T10:59:43;1.42;;;1.25;;
4078;SDS011;2054;47.858;11.156;2023-05-10T11:02:17;2.08;;;1.00;;
4078;SDS011;2054;47.858;11.156;2023-05-10T11:05:00;0.90;;;0.85;;
4078;SDS011;2054;47.858;11.156;2023-05-10T11:07:52;2.50;;;1.67;;
4078;SDS011;2054;47.858;11.156;2023-05-10T11:10:20;1.17;;;1.00;;
4078;SDS011;2054;47.858;11.156;2023-05-10T11:12:51;2.00;;;0.80;;
4078;SDS011;2054;47.858;11.156;2023-05-10T11:15:19;1.00;;;1.00;;
4078;SDS011;2054;47.858;11.156;2023-05-10T11:17:47;1.30;;;1.00;;
4078;SDS011;2054;47.858;11.156;2023-05-10T11:20:17;1.45;;;0.90;;
4078;SDS011;2054;47.858;11.156;2023-05-10T11:22:49;1.00;;;0.80;;
4078;SDS011;2054;47.858;11.156;2023-05-10T11:25:18;1.00;;;1.00;;
4078;SDS011;2054;47.858;11.156;2023-05-10T11:27:47;1.00;;;1.00;;
4078;SDS011;2054;47.858;11.156;2023-05-10T11:30:15;1.20;;;1.10;;
4078;SDS011;2054;47.858;11.156;2023-05-10T11:32:42;1.33;;;1.17;;
4078;SDS011;2054;47.858;11.156;2023-05-10T11:35:10;4.25;;;1.10;;
4078;SDS011;2054;47.858;11.156;2023-05-10T11:37:38;2.25;;;1.10;;
4078;SDS011;2054;47.858;11.156;2023-05-10T11:40:09;1.02;;;0.82;;
4078;SDS011;2054;47.858;11.156;2023-05-10T11:42:38;2.65;;;0.80;;
4078;SDS011;2054;47.858;11.156;2023-05-10T11:45:06;0.82;;;0.82;;
4078;SDS011;2054;47.858;11.156;2023-05-10T11:47:33;3.38;;;1.00;;
4078;SDS011;2054;47.858;11.156;2023-05-10T11:50:02;0.70;;;0.70;;
4078;SDS011;2054;47.858;11.156;2023-05-10T11:52:29;3.80;;;1.92;;
4078;SDS011;2054;47.858;11.156;2023-05-10T11:55:02;1.00;;;0.90;;
4078;SDS011;2054;47.858;11.156;2023-05-10T11:57:30;0.80;;;0.80;;
4078;SDS011;2054;47.858;11.156;2023-05-10T11:59:59;1.13;;;0.70;;
4078;SDS011;2054;47.858;11.156;2023-05-10T12:02:28;4.75;;;1.40;;
4078;SDS011;2054;47.858;11.156;2023-05-10T12:04:56;1.27;;;0.65;;
4078;SDS011;2054;47.858;11.156;2023-05-10T12:07:23;0.80;;;0.80;;
4078;SDS011;2054;47.858;11.156;2023-05-10T12:10:03;0.70;;;0.70;;
4078;SDS011;2054;47.858;11.156;2023-05-10T12:12:35;2.25;;;1.00;;
4078;SDS011;2054;47.858;11.156;2023-05-10T12:15:04;1.42;;;0.90;;
4078;SDS011;2054;47.858;11.156;2023-05-10T12:17:32;0.90;;;0.82;;
4078;SDS011;2054;47.858;11.156;2023-05-10T12:20:12;1.52;;;0.80;;
4078;SDS011;2054;47.858;11.156;2023-05-10T12:22:39;1.33;;;0.80;;
4078;SDS011;2054;47.858;11.156;2023-05-10T12:25:08;0.75;;;0.75;;
4078;SDS011;2054;47.858;11.156;2023-05-10T12:27:35;1.50;;;1.00;;
4078;SDS011;2054;47.858;11.156;2023-05-10T12:30:05;1.05;;;0.90;;
4078;SDS011;2054;47.858;11.156;2023-05-10T12:32:39;1.52;;;1.02;;
4078;SDS011;2054;47.858;11.156;2023-05-10T12:35:06;1.17;;;1.08;;
4078;SDS011;2054;47.858;11.156;2023-05-10T12:37:35;0.80;;;0.80;;
4078;SDS011;2054;47.858;11.156;2023-05-10T12:40:05;1.50;;;1.17;;
4078;SDS011;2054;47.858;11.156;2023-05-10T12:42:33;1.25;;;1.15;;
4078;SDS011;2054;47.858;11.156;2023-05-10T12:45:00;2.65;;;1.02;;
4078;SDS011;2054;47.858;11.156;2023-05-10T12:47:30;1.90;;;1.20;;
4078;SDS011;2054;47.858;11.156;2023-05-10T12:49:57;1.15;;;0.88;;
4078;SDS011;2054;47.858;11.156;2023-05-10T12:52:25;1.30;;;1.20;;
4078;SDS011;2054;47.858;11.156;2023-05-10T12:54:52;2.15;;;1.20;;
4078;SDS011;2054;47.858;11.156;2023-05-10T12:57:19;3.78;;;1.70;;
4078;SDS011;2054;47.858;11.156;2023-05-10T12:59:47;2.55;;;1.08;;
4078;SDS011;2054;47.858;11.156;2023-05-10T13:02:14;1.40;;;1.30;;
4078;SDS011;2054;47.858;11.156;2023-05-10T13:04:44;1.05;;;0.80;;
4078;SDS011;2054;47.858;11.156;2023-05-10T13:07:12;1.95;;;1.48;;
4078;SDS011;2054;47.858;11.156;2023-05-10T13:09:39;0.90;;;0.73;;
4078;SDS011;2054;47.858;11.156;2023-05-10T13:12:07;2.80;;;0.60;;
4078;SDS011;2054;47.858;11.156;2023-05-10T13:14:34;0.63;;;0.63;;
4078;SDS011;2054;47.858;11.156;2023-05-10T13:17:01;0.70;;;0.70;;
4078;SDS011;2054;47.858;11.156;2023-05-10T13:19:28;0.70;;;0.70;;
4078;SDS011;2054;47.858;11.156;2023-05-10T13:21:57;0.70;;;0.60;;
4078;SDS011;2054;47.858;11.156;2023-05-10T13:24:24;0.77;;;0.75;;
4078;SDS011;2054;47.858;11.156;2023-05-10T13:26:52;0.68;;;0.60;;
4078;SDS011;2054;47.858;11.156;2023-05-10T13:29:19;0.50;;;0.50;;
4078;SDS011;2054;47.858;11.156;2023-05-10T13:31:47;0.85;;;0.52;;
4078;SDS011;2054;47.858;11.156;2023-05-10T13:34:14;0.63;;;0.60;;
4078;SDS011;2054;47.858;11.156;2023-05-10T13:36:45;0.93;;;0.60;;
4078;SDS011;2054;47.858;11.156;2023-05-10T13:39:14;0.50;;;0.50;;
4078;SDS011;2054;47.858;11.156;2023-05-10T13:41:41;0.60;;;0.60;;
4078;SDS011;2054;47.858;11.156;2023-05-10T13:44:08;0.50;;;0.50;;
4078;SDS011;2054;47.858;11.156;2023-05-10T13:46:37;0.60;;;0.50;;
4078;SDS011;2054;47.858;11.156;2023-05-10T13:49:04;1.27;;;0.80;;
4078;SDS011;2054;47.858;11.156;2023-05-10T13:51:32;1.17;;;0.60;;
4078;SDS011;2054;47.858;11.156;2023-05-10T13:54:00;0.65;;;0.60;;
4078;SDS011;2054;47.858;11.156;2023-05-10T13:56:29;0.57;;;0.57;;
4078;SDS011;2054;47.858;11.156;2023-05-10T13:58:57;0.50;;;0.50;;
4078;SDS011;2054;47.858;11.156;2023-05-10T14:01:25;0.75;;;0.50;;
4078;SDS011;2054;47.858;11.156;2023-05-10T14:03:53;0.88;;;0.80;;
4078;SDS011;2054;47.858;11.156;2023-05-10T14:06:20;0.63;;;0.63;;
4078;SDS011;2054;47.858;11.156;2023-05-10T14:08:47;1.20;;;1.10;;
4078;SDS011;2054;47.858;11.156;2023-05-10T14:11:14;1.52;;;0.75;;
4078;SDS011;2054;47.858;11.156;2023-05-10T14:13:43;1.75;;;1.55;;
4078;SDS011;2054;47.858;11.156;2023-05-10T14:16:11;2.20;;;1.90;;
4078;SDS011;2054;47.858;11.156;2023-05-10T14:18:39;2.35;;;1.17;;
4078;SDS011;2054;47.858;11.156;2023-05-10T14:21:07;0.75;;;0.60;;
4078;SDS011;2054;47.858;11.156;2023-05-10T14:23:34;1.15;;;0.90;;
4078;SDS011;2054;47.858;11.156;2023-05-10T14:26:01;1.58;;;0.73;;
4078;SDS011;2054;47.858;11.156;2023-05-10T14:28:29;1.33;;;1.00;;
4078;SDS011;2054;47.858;11.156;2023-05-10T14:30:57;1.30;;;0.70;;
4078;SDS011;2054;47.858;11.156;2023-05-10T14:33:25;0.80;;;0.70;;
4078;SDS011;2054;47.858;11.156;2023-05-10T14:35:53;1.13;;;0.90;;
4078;SDS011;2054;47.858;11.156;2023-05-10T14:38:21;2.35;;;1.20;;
4078;SDS011;2054;47.858;11.156;2023-05-10T14:40:48;1.30;;;1.20;;
4078;SDS011;2054;47.858;11.156;2023-05-10T14:43:16;1.70;;;1.60;;
4078;SDS011;2054;47.858;11.156;2023-05-10T14:45:43;4.95;;;2.88;;
4078;SDS011;2054;47.858;11.156;2023-05-10T14:48:13;1.33;;;1.23;;
4078;SDS011;2054;47.858;11.156;2023-05-10T14:50:42;1.73;;;1.40;;
4078;SDS011;2054;47.858;11.156;2023-05-10T14:53:09;1.15;;;1.05;;
4078;SDS011;2054;47.858;11.156;2023-05-10T14:55:36;1.10;;;1.00;;
4078;SDS011;2054;47.858;11.156;2023-05-10T14:58:04;0.80;;;0.80;;
4078;SDS011;2054;47.858;11.156;2023-05-10T15:00:31;1.17;;;1.05;;
4078;SDS011;2054;47.858;11.156;2023-05-10T15:02:59;2.80;;;1.00;;
4078;SDS011;2054;47.858;11.156;2023-05-10T15:05:27;1.90;;;0.70;;
4078;SDS011;2054;47.858;11.156;2023-05-10T15:07:54;1.55;;;0.90;;
4078;SDS011;2054;47.858;11.156;2023-05-10T15:10:22;2.00;;;0.90;;
4078;SDS011;2054;47.858;11.156;2023-05-10T15:12:50;1.08;;;1.00;;
4078;SDS011;2054;47.858;11.156;2023-05-10T15:15:17;1.35;;;1.00;;
4078;SDS011;2054;47.858;11.156;2023-05-10T15:17:44;1.10;;;1.00;;
4078;SDS011;2054;47.858;11.156;2023-05-10T15:20:12;1.35;;;1.10;;
4078;SDS011;2054;47.858;11.156;2023-05-10T15:22:41;1.10;;;1.00;;
4078;SDS011;2054;47.858;11.156;2023-05-10T15:25:08;1.40;;;1.00;;
4078;SDS011;2054;47.858;11.156;2023-05-10T15:27:36;1.85;;;0.88;;
4078;SDS011;2054;47.858;11.156;2023-05-10T15:30:04;1.33;;;1.23;;
4078;SDS011;2054;47.858;11.156;2023-05-10T15:32:31;1.58;;;0.93;;
4078;SDS011;2054;47.858;11.156;2023-05-10T15:34:59;1.73;;;1.20;;
4078;SDS011;2054;47.858;11.156;2023-05-10T15:37:27;0.80;;;0.80;;
4078;SDS011;2054;47.858;11.156;2023-05-10T15:39:56;2.13;;;1.58;;
4078;SDS011;2054;47.858;11.156;2023-05-10T15:42:28;3.05;;;1.60;;
4078;SDS011;2054;47.858;11.156;2023-05-10T15:44:56;3.38;;;2.13;;
4078;SDS011;2054;47.858;11.156;2023-05-10T15:47:24;1.50;;;1.10;;
4078;SDS011;2054;47.858;11.156;2023-05-10T15:49:52;5.68;;;2.97;;
4078;SDS011;2054;47.858;11.156;2023-05-10T15:52:20;10.73;;;4.35;;
4078;SDS011;2054;47.858;11.156;2023-05-10T15:54:47;3.72;;;1.50;;
4078;SDS011;2054;47.858;11.156;2023-05-10T15:57:16;2.50;;;1.42;;
4078;SDS011;2054;47.858;11.156;2023-05-10T15:59:43;1.55;;;1.20;;
4078;SDS011;2054;47.858;11.156;2023-05-10T16:02:11;3.08;;;2.17;;
4078;SDS011;2054;47.858;11.156;2023-05-10T16:04:39;1.58;;;1.35;;
4078;SDS011;2054;47.858;11.156;2023-05-10T16:07:08;1.67;;;0.95;;
4078;SDS011;2054;47.858;11.156;2023-05-10T16:09:36;0.98;;;0.88;;
4078;SDS011;2054;47.858;11.156;2023-05-10T16:12:03;1.65;;;1.00;;
4078;SDS011;2054;47.858;11.156;2023-05-10T16:14:32;1.80;;;1.05;;
4078;SDS011;2054;47.858;11.156;2023-05-10T16:17:00;1.88;;;1.15;;
4078;SDS011;2054;47.858;11.156;2023-05-10T16:19:28;2.20;;;1.02;;
4078;SDS011;2054;47.858;11.156;2023-05-10T16:21:56;1.17;;;1.10;;
4078;SDS011;2054;47.858;11.156;2023-05-10T16:24:23;1.75;;;1.20;;
4078;SDS011;2054;47.858;11.156;2023-05-10T16:26:51;1.40;;;1.30;;
4078;SDS011;2054;47.858;11.156;2023-05-10T16:29:18;1.27;;;1.17;;
4078;SDS011;2054;47.858;11.156;2023-05-10T16:31:47;2.33;;;1.60;;
4078;SDS011;2054;47.858;11.156;2023-05-10T16:34:15;3.72;;;1.33;;
4078;SDS011;2054;47.858;11.156;2023-05-10T16:36:44;2.85;;;1.48;;
4078;SDS011;2054;47.858;11.156;2023-05-10T16:39:11;1.80;;;1.33;;
4078;SDS011;2054;47.858;11.156;2023-05-10T16:41:39;5.07;;;1.40;;
4078;SDS011;2054;47.858;11.156;2023-05-10T16:44:06;1.98;;;1.33;;
4078;SDS011;2054;47.858;11.156;2023-05-10T16:46:34;1.58;;;1.48;;
4078;SDS011;2054;47.858;11.156;2023-05-10T16:49:03;3.47;;;1.70;;
4078;SDS011;2054;47.858;11.156;2023-05-10T16:51:30;1.60;;;1.45;;
4078;SDS011;2054;47.858;11.156;2023-05-10T16:54:00;2.47;;;1.33;;
4078;SDS011;2054;47.858;11.156;2023-05-10T16:56:28;1.45;;;1.33;;
4078;SDS011;2054;47.858;11.156;2023-05-10T16:58:55;1.77;;;1.38;;
4078;SDS011;2054;47.858;11.156;2023-05-10T17:01:22;2.00;;;1.45;;
4078;SDS011;2054;47.858;11.156;2023-05-10T17:03:50;2.38;;;1.40;;
4078;SDS011;2054;47.858;11.156;2023-05-10T17:06:19;3.75;;;1.45;;
4078;SDS011;2054;47.858;11.156;2023-05-10T17:08:46;1.45;;;0.95;;
4078;SDS011;2054;47.858;11.156;2023-05-10T17:11:13;2.47;;;1.10;;
4078;SDS011;2054;47.858;11.156;2023-05-10T17:13:44;4.93;;;1.10;;
4078;SDS011;2054;47.858;11.156;2023-05-10T17:16:13;1.90;;;1.50;;
4078;SDS011;2054;47.858;11.156;2023-05-10T17:18:41;2.42;;;1.27;;
4078;SDS011;2054;47.858;11.156;2023-05-10T17:21:10;1.67;;;1.50;;
4078;SDS011;2054;47.858;11.156;2023-05-10T17:23:39;2.63;;;1.30;;
4078;SDS011;2054;47.858;11.156;2023-05-10T17:26:07;1.77;;;1.25;;
4078;SDS011;2054;47.858;11.156;2023-05-10T17:28:34;2.65;;;1.08;;
4078;SDS011;2054;47.858;11.156;2023-05-10T17:31:04;2.90;;;1.80;;
4078;SDS011;2054;47.858;11.156;2023-05-10T17:33:32;3.90;;;2.50;;
4078;SDS011;2054;47.858;11.156;2023-05-10T17:36:00;3.72;;;2.20;;
4078;SDS011;2054;47.858;11.156;2023-05-10T17:38:27;3.65;;;2.30;;
4078;SDS011;2054;47.858;11.156;2023-05-10T17:40:56;4.38;;;2.80;;
4078;SDS011;2054;47.858;11.156;2023-05-10T17:43:23;4.75;;;3.00;;
4078;SDS011;2054;47.858;11.156;2023-05-10T17:45:51;4.18;;;2.20;;
4078;SDS011;2054;47.858;11.156;2023-05-10T17:48:18;3.42;;;2.00;;
4078;SDS011;2054;47.858;11.156;2023-05-10T17:50:46;1.65;;;1.38;;
4078;SDS011;2054;47.858;11.156;2023-05-10T17:53:15;1.70;;;1.60;;
4078;SDS011;2054;47.858;11.156;2023-05-10T17:55:42;3.70;;;1.83;;
4078;SDS011;2054;47.858;11.156;2023-05-10T17:58:11;1.52;;;1.38;;
4078;SDS011;2054;47.858;11.156;2023-05-10T18:00:38;1.40;;;1.30;;